Time;durP1;ratioP1;P1;durP2;ratioP2;P2;SDS_P1;SDS_P2;PMS_P1;PMS_P2;Temp;Humidity;BMP_temperature;BMP_pressure;BME280_temperature;BME280_humidity;BME280_pressure;Samples;Min_cycle;Max_cycle;Signal;HPM_P1;HPM_P2
2023/05/15 00:01:42;;;;;;;32.00;18.25;;;12.70;99.90;;;;;;4214851;28;20082;-83
2023/05/15 00:03:43;;;;;;;31.38;17.75;;;12.70;99.90;;;;;;4232262;28;20114;-83
2023/05/15 00:05:43;;;;;;;34.42;17.58;;;12.60;99.90;;;;;;4214694;28;20051;-83
2023/05/15 00:07:44;;;;;;;30.75;17.95;;;12.60;99.90;;;;;;4232034;28;20047;-83
2023/05/15 00:09:45;;;;;;;34.28;18.45;;;12.60;99.90;;;;;;4232745;28;20047;-84
2023/05/15 00:11:46;;;;;;;31.95;17.08;;;12.60;99.90;;;;;;4214529;28;20056;-84
2023/05/15 00:13:46;;;;;;;33.22;18.15;;;12.60;99.90;;;;;;4231786;28;20051;-84
2023/05/15 00:15:47;;;;;;;37.53;19.58;;;12.60;99.90;;;;;;4236178;27;20039;-84
2023/05/15 00:17:48;;;;;;;33.47;18.67;;;12.50;99.90;;;;;;4231352;28;20463;-83
2023/05/15 00:19:48;;;;;;;35.67;17.73;;;12.50;99.90;;;;;;4232456;28;20051;-83
2023/05/15 00:21:49;;;;;;;36.33;17.85;;;12.50;99.90;;;;;;4231482;28;20466;-83
2023/05/15 00:23:52;;;;;;;33.88;17.00;;;12.50;99.90;;;;;;4232036;28;20706;-84
2023/05/15 00:25:53;;;;;;;33.90;17.90;;;12.50;99.90;;;;;;4231176;28;20119;-84
2023/05/15 00:27:54;;;;;;;40.03;19.58;;;12.50;99.90;;;;;;4232028;28;20475;-84
2023/05/15 00:29:55;;;;;;;31.35;16.42;;;12.50;99.90;;;;;;4231391;28;20048;-83
2023/05/15 00:31:55;;;;;;;36.83;20.48;;;12.50;99.90;;;;;;4212777;28;20031;-83
2023/05/15 00:33:56;;;;;;;34.15;17.90;;;12.50;99.90;;;;;;4232329;28;20048;-83
2023/05/15 00:35:57;;;;;;;37.10;18.45;;;12.50;99.90;;;;;;4236881;27;20027;-83
2023/05/15 00:37:58;;;;;;;34.03;17.75;;;12.50;99.90;;;;;;4231508;28;20477;-84
2023/05/15 00:39:59;;;;;;;40.50;19.42;;;12.50;99.90;;;;;;4230456;28;20039;-83
2023/05/15 00:42:01;;;;;;;33.72;17.73;;;12.50;99.90;;;;;;4249314;27;20119;-84
2023/05/15 00:44:02;;;;;;;36.35;18.88;;;12.50;99.90;;;;;;4249133;27;20051;-83
2023/05/15 00:46:05;;;;;;;34.85;17.40;;;12.50;99.90;;;;;;4248939;27;20050;-83
2023/05/15 00:48:08;;;;;;;37.15;18.27;;;12.40;99.90;;;;;;4248998;27;20046;-83
2023/05/15 00:50:09;;;;;;;35.65;17.85;;;12.40;99.90;;;;;;4248763;28;20047;-83
2023/05/15 00:52:11;;;;;;;33.88;17.55;;;12.40;99.90;;;;;;4222286;28;20051;-83
2023/05/15 00:54:11;;;;;;;35.80;18.83;;;12.50;99.90;;;;;;4231160;28;20048;-83
2023/05/15 00:56:13;;;;;;;38.33;18.38;;;12.50;99.90;;;;;;4231460;28;20039;-84
2023/05/15 00:58:14;;;;;;;36.17;18.75;;;12.40;99.90;;;;;;4231576;28;20052;-84
2023/05/15 01:00:17;;;;;;;35.13;18.70;;;12.40;99.90;;;;;;4231210;28;20043;-84
2023/05/15 01:02:18;;;;;;;40.08;19.33;;;12.40;99.90;;;;;;4232192;28;20051;-84
2023/05/15 01:04:19;;;;;;;35.58;18.50;;;12.50;99.90;;;;;;4231165;28;20122;-84
2023/05/15 01:06:20;;;;;;;38.90;19.70;;;12.50;99.90;;;;;;4231493;28;20050;-84
2023/05/15 01:08:41;;;;;;;35.90;19.30;;;12.40;99.90;;;;;;4231165;28;20456;-84
2023/05/15 01:10:42;;;;;;;33.95;18.48;;;12.40;99.90;;;;;;4247250;28;20043;-84
2023/05/15 01:12:46;;;;;;;39.95;20.25;;;12.30;99.90;;;;;;4249958;28;20588;-84
2023/05/15 01:14:48;;;;;;;42.28;21.10;;;12.20;99.90;;;;;;4230188;28;20109;-83
2023/05/15 01:16:48;;;;;;;38.08;20.13;;;12.20;99.90;;;;;;4248544;28;20047;-84
2023/05/15 01:18:49;;;;;;;41.55;19.60;;;12.30;99.90;;;;;;4248221;28;20372;-84
2023/05/15 01:21:15;;;;;;;41.78;19.05;;;12.20;99.90;;;;;;4234328;27;20078;-84
2023/05/15 01:23:41;;;;;;;39.50;18.90;;;12.20;99.90;;;;;;4232397;28;20534;-83
2023/05/15 01:25:52;;;;;;;38.40;18.80;;;12.20;99.90;;;;;;4242072;28;20462;-84
2023/05/15 01:28:07;;;;;;;36.78;20.05;;;12.10;99.90;;;;;;4248914;28;20043;-84
2023/05/15 01:30:15;;;;;;;40.90;18.95;;;12.10;99.90;;;;;;4247551;28;20040;-83
2023/05/15 01:32:36;;;;;;;35.95;19.10;;;12.10;99.90;;;;;;4249165;28;20360;-82
2023/05/15 01:35:06;;;;;;;35.30;19.98;;;12.10;99.90;;;;;;4248699;28;20158;-83
2023/05/15 01:37:10;;;;;;;52.00;17.95;;;12.10;99.90;;;;;;4232361;28;20047;-83
2023/05/15 01:39:12;;;;;;;31.65;16.02;;;12.10;99.90;;;;;;4233559;28;20123;-83
2023/05/15 01:41:31;;;;;;;32.72;17.17;;;12.10;99.90;;;;;;4252340;27;20122;-83
2023/05/15 01:43:36;;;;;;;32.83;15.90;;;12.00;99.90;;;;;;4229138;28;20596;-83
2023/05/15 01:45:39;;;;;;;42.97;17.42;;;12.00;99.90;;;;;;4251439;27;20047;-84
2023/05/15 01:47:43;;;;;;;35.47;17.27;;;11.90;99.90;;;;;;4233893;28;20056;-83
2023/05/15 01:49:45;;;;;;;35.22;16.73;;;11.90;99.90;;;;;;4233985;28;20532;-83
2023/05/15 01:51:48;;;;;;;33.75;17.73;;;11.90;99.90;;;;;;4251429;27;20046;-83
2023/05/15 01:53:50;;;;;;;40.42;20.33;;;11.90;99.90;;;;;;4252192;27;20047;-83
2023/05/15 01:55:53;;;;;;;40.00;17.98;;;11.90;99.90;;;;;;4232960;28;20157;-84
2023/05/15 01:57:56;;;;;;;40.42;19.05;;;11.80;99.90;;;;;;4252274;27;20610;-83
2023/05/15 01:59:59;;;;;;;36.13;18.45;;;11.90;99.90;;;;;;4233734;28;20109;-84
2023/05/15 02:02:03;;;;;;;36.30;18.52;;;11.80;99.90;;;;;;4233224;28;20047;-83
2023/05/15 02:04:04;;;;;;;54.70;19.98;;;11.80;99.90;;;;;;4252157;27;20482;-83
2023/05/15 02:06:06;;;;;;;42.42;21.00;;;11.80;99.90;;;;;;4232671;28;20040;-83
2023/05/15 02:08:09;;;;;;;40.17;20.02;;;11.80;99.90;;;;;;4233484;28;20130;-83
2023/05/15 02:10:15;;;;;;;39.92;22.17;;;11.80;99.90;;;;;;4250884;27;20057;-83
2023/05/15 02:12:16;;;;;;;39.42;21.08;;;11.80;99.90;;;;;;4251168;27;20077;-83
2023/05/15 02:14:18;;;;;;;41.88;20.77;;;11.80;99.90;;;;;;4251711;27;20054;-83
2023/05/15 02:16:19;;;;;;;45.40;21.27;;;11.80;99.90;;;;;;4251211;27;20043;-83
2023/05/15 02:18:19;;;;;;;39.95;20.67;;;11.80;99.90;;;;;;4226134;28;20047;-83
2023/05/15 02:20:20;;;;;;;39.60;20.85;;;11.70;99.90;;;;;;4233227;28;20044;-83
2023/05/15 02:22:21;;;;;;;41.33;19.42;;;11.70;99.90;;;;;;4234166;28;20040;-82
2023/05/15 02:24:22;;;;;;;45.63;22.20;;;11.60;99.90;;;;;;4233463;28;20076;-83
2023/05/15 02:26:32;;;;;;;45.35;20.30;;;11.60;99.90;;;;;;4233042;28;20039;-82
2023/05/15 02:28:50;;;;;;;40.47;19.20;;;11.60;99.90;;;;;;4234149;28;20036;-82
2023/05/15 02:30:59;;;;;;;93.53;21.83;;;11.60;99.90;;;;;;4233824;28;20115;-83
2023/05/15 02:33:30;;;;;;;41.40;19.70;;;11.60;99.90;;;;;;4215120;28;20044;-83
2023/05/15 02:35:42;;;;;;;45.40;20.05;;;11.50;99.90;;;;;;4233572;27;20307;-83
2023/05/15 02:37:48;;;;;;;50.83;21.52;;;11.50;99.90;;;;;;4248691;27;20088;-83
2023/05/15 02:39:53;;;;;;;86.95;21.13;;;11.40;99.90;;;;;;4249105;27;20497;-84
2023/05/15 02:41:55;;;;;;;50.42;20.38;;;11.50;99.90;;;;;;4215462;28;20048;-83
2023/05/15 02:43:58;;;;;;;53.47;19.77;;;11.40;99.90;;;;;;4234226;28;20075;-84
2023/05/15 02:45:59;;;;;;;71.75;20.00;;;11.30;99.90;;;;;;4233260;28;20127;-83
2023/05/15 02:48:01;;;;;;;49.45;19.75;;;11.30;99.90;;;;;;4233366;28;20044;-84
2023/05/15 02:50:04;;;;;;;70.40;20.90;;;11.30;99.90;;;;;;4233363;28;20465;-84
2023/05/15 02:52:05;;;;;;;43.78;21.40;;;11.20;99.90;;;;;;4216273;28;20048;-84
2023/05/15 02:54:07;;;;;;;48.03;21.02;;;11.10;99.90;;;;;;4228551;28;20043;-84
2023/05/15 02:56:08;;;;;;;43.28;18.85;;;11.20;99.90;;;;;;4250054;27;20487;-84
2023/05/15 02:58:09;;;;;;;39.80;18.27;;;11.10;99.90;;;;;;4233102;28;20126;-84
2023/05/15 03:00:11;;;;;;;40.80;17.67;;;11.40;99.90;;;;;;4232050;28;20043;-83
2023/05/15 03:02:12;;;;;;;46.88;19.38;;;11.00;99.90;;;;;;4232674;28;20047;-84
2023/05/15 03:04:14;;;;;;;47.67;18.45;;;11.00;99.90;;;;;;4249950;27;20053;-83
2023/05/15 03:06:15;;;;;;;40.90;18.23;;;11.00;99.90;;;;;;4250362;27;20047;-83
2023/05/15 03:08:16;;;;;;;60.90;17.55;;;11.00;99.90;;;;;;4250376;27;20058;-84
2023/05/15 03:10:17;;;;;;;70.05;16.80;;;11.00;99.90;;;;;;4245055;27;20474;-83
2023/05/15 03:12:17;;;;;;;41.67;17.45;;;11.00;99.90;;;;;;4250088;27;20130;-83
2023/05/15 03:14:19;;;;;;;35.85;16.13;;;11.00;99.90;;;;;;4250023;27;20167;-83
2023/05/15 03:16:20;;;;;;;34.40;16.27;;;11.00;99.90;;;;;;4250187;27;20069;-83
2023/05/15 03:18:21;;;;;;;34.75;16.52;;;11.10;99.90;;;;;;4250084;27;20035;-83
2023/05/15 03:20:22;;;;;;;38.60;17.70;;;11.00;99.90;;;;;;4250473;27;20050;-83
2023/05/15 03:22:23;;;;;;;31.08;14.80;;;11.00;99.90;;;;;;4249538;27;20039;-84
2023/05/15 03:24:24;;;;;;;44.75;16.85;;;11.00;99.90;;;;;;4249009;27;20499;-84
2023/05/15 03:26:24;;;;;;;36.00;17.50;;;11.00;99.90;;;;;;4250184;27;20047;-84
2023/05/15 03:28:25;;;;;;;28.55;15.85;;;10.90;99.90;;;;;;4241284;27;20051;-84
2023/05/15 03:30:26;;;;;;;35.10;16.80;;;11.00;99.90;;;;;;4233009;28;20050;-83
2023/05/15 03:32:26;;;;;;;31.67;15.30;;;10.90;99.90;;;;;;4232390;28;20150;-83
2023/05/15 03:34:27;;;;;;;28.38;14.05;;;11.00;99.90;;;;;;4198129;28;20480;-84
2023/05/15 03:36:28;;;;;;;26.63;13.50;;;10.90;99.90;;;;;;4214442;28;20052;-83
2023/05/15 03:38:28;;;;;;;25.75;12.95;;;10.90;99.90;;;;;;4233607;28;20175;-83
2023/05/15 03:40:30;;;;;;;29.63;12.82;;;11.00;99.90;;;;;;4233021;28;20051;-83
2023/05/15 03:42:34;;;;;;;30.17;12.68;;;10.90;99.90;;;;;;4232853;28;20403;-83
2023/05/15 03:44:35;;;;;;;27.05;13.13;;;11.00;99.90;;;;;;4204861;28;20048;-83
2023/05/15 03:46:35;;;;;;;20.08;10.55;;;11.00;99.90;;;;;;4231150;28;20055;-84
2023/05/15 03:48:36;;;;;;;25.75;12.15;;;10.90;99.90;;;;;;4249730;27;20054;-83
2023/05/15 03:50:38;;;;;;;21.52;11.27;;;11.00;99.90;;;;;;4249833;27;20043;-83
2023/05/15 03:52:38;;;;;;;22.90;12.05;;;10.90;99.90;;;;;;4231396;28;20584;-84
2023/05/15 03:54:41;;;;;;;26.95;13.90;;;11.00;99.90;;;;;;4249369;27;20118;-84
2023/05/15 03:56:42;;;;;;;22.27;12.70;;;10.90;99.90;;;;;;4249895;27;20042;-84
2023/05/15 03:58:43;;;;;;;22.70;12.63;;;10.90;99.90;;;;;;4249903;27;20496;-84
2023/05/15 04:00:44;;;;;;;22.10;12.77;;;10.90;99.90;;;;;;4249336;27;20047;-84
2023/05/15 04:02:45;;;;;;;24.55;13.40;;;10.90;99.90;;;;;;4238331;27;20407;-83
2023/05/15 04:04:45;;;;;;;23.65;13.77;;;10.90;99.90;;;;;;4243573;27;20111;-83
2023/05/15 04:06:47;;;;;;;23.70;13.75;;;10.90;99.90;;;;;;4250238;27;20039;-83
2023/05/15 04:08:50;;;;;;;22.08;13.35;;;10.90;99.90;;;;;;4230963;28;20058;-83
2023/05/15 04:10:51;;;;;;;22.33;13.57;;;11.00;99.90;;;;;;4249810;27;20082;-84
2023/05/15 04:12:52;;;;;;;24.55;14.00;;;10.90;99.90;;;;;;4249302;27;20043;-83
2023/05/15 04:14:52;;;;;;;21.80;13.50;;;10.90;99.90;;;;;;4248007;27;20036;-83
2023/05/15 04:16:54;;;;;;;23.50;13.90;;;11.00;99.90;;;;;;4249950;27;20108;-84
2023/05/15 04:18:55;;;;;;;23.90;13.50;;;11.00;99.90;;;;;;4249427;27;20126;-84
2023/05/15 04:20:55;;;;;;;28.23;14.88;;;11.00;99.90;;;;;;4231322;28;20055;-84
2023/05/15 04:22:56;;;;;;;25.55;13.95;;;11.10;99.90;;;;;;4238471;27;20056;-84
2023/05/15 04:24:57;;;;;;;23.33;14.35;;;11.10;99.90;;;;;;4214568;28;20063;-84
2023/05/15 04:26:57;;;;;;;25.80;14.18;;;11.20;99.90;;;;;;4214183;28;20051;-84
2023/05/15 04:28:58;;;;;;;20.88;13.30;;;11.10;99.90;;;;;;4231886;28;20075;-83
2023/05/15 04:31:00;;;;;;;24.50;13.32;;;11.20;99.90;;;;;;4197165;28;20059;-83
2023/05/15 04:33:01;;;;;;;20.75;11.82;;;11.30;99.90;;;;;;4232191;28;20050;-83
2023/05/15 04:35:07;;;;;;;18.77;11.45;;;11.30;99.90;;;;;;4232427;28;20495;-83
2023/05/15 04:37:10;;;;;;;16.55;10.40;;;11.30;99.90;;;;;;4231133;28;20168;-84
2023/05/15 04:39:11;;;;;;;17.02;11.73;;;11.30;99.90;;;;;;4236261;27;20052;-84
2023/05/15 04:41:12;;;;;;;17.48;11.52;;;11.30;99.90;;;;;;4232105;28;20453;-84
2023/05/15 04:43:13;;;;;;;19.10;10.73;;;11.40;99.90;;;;;;4231873;28;20040;-84
2023/05/15 04:45:14;;;;;;;17.40;11.07;;;11.40;99.90;;;;;;4232111;28;20044;-84
2023/05/15 04:47:14;;;;;;;16.02;10.32;;;11.50;99.90;;;;;;4231727;28;20062;-84
2023/05/15 04:49:15;;;;;;;17.67;10.63;;;11.50;99.90;;;;;;4232262;28;20060;-84
2023/05/15 04:51:16;;;;;;;17.55;9.75;;;11.50;99.90;;;;;;4231653;28;20448;-83
2023/05/15 04:53:17;;;;;;;16.48;10.02;;;11.50;99.90;;;;;;4232904;28;20484;-83
2023/05/15 04:55:19;;;;;;;14.18;8.85;;;11.50;99.90;;;;;;4222086;28;20100;-83
2023/05/15 04:57:20;;;;;;;16.15;8.90;;;11.40;99.90;;;;;;4218410;28;20193;-83
2023/05/15 04:59:21;;;;;;;14.50;9.60;;;11.50;99.90;;;;;;4233604;28;20043;-83
2023/05/15 05:01:22;;;;;;;13.30;8.88;;;11.50;99.90;;;;;;4235608;28;20041;-83
2023/05/15 05:03:23;;;;;;;13.93;8.77;;;11.50;99.90;;;;;;4232591;28;20040;-83
2023/05/15 05:05:24;;;;;;;16.45;9.05;;;11.50;99.90;;;;;;4232227;28;20039;-84
2023/05/15 05:07:27;;;;;;;13.88;9.30;;;11.50;99.90;;;;;;4232153;28;20052;-82
2023/05/15 05:09:28;;;;;;;14.50;8.55;;;11.60;99.90;;;;;;4215187;28;20513;-83
2023/05/15 05:11:31;;;;;;;11.75;8.38;;;11.60;99.90;;;;;;4232342;28;20071;-83
2023/05/15 05:13:32;;;;;;;12.88;7.63;;;11.60;99.90;;;;;;4216403;28;20044;-82
2023/05/15 05:15:34;;;;;;;12.23;8.10;;;11.70;99.90;;;;;;4216469;28;20377;-83
2023/05/15 05:17:35;;;;;;;11.80;8.13;;;11.70;99.90;;;;;;4216364;28;20043;-83
2023/05/15 05:19:36;;;;;;;11.68;7.55;;;11.70;99.90;;;;;;4247031;27;20051;-83
2023/05/15 05:21:38;;;;;;;15.77;8.80;;;11.90;99.90;;;;;;4251942;27;20441;-83
2023/05/15 05:23:39;;;;;;;13.15;8.00;;;11.80;99.90;;;;;;4251855;27;20414;-83
2023/05/15 05:25:40;;;;;;;11.90;8.05;;;11.90;99.90;;;;;;4251497;27;20039;-83
2023/05/15 05:27:40;;;;;;;18.27;9.10;;;11.90;99.90;;;;;;4251346;27;20109;-84
2023/05/15 05:29:41;;;;;;;13.90;8.30;;;12.00;99.90;;;;;;4251681;27;20055;-83
2023/05/15 05:31:42;;;;;;;14.52;8.38;;;12.00;99.90;;;;;;4251919;27;20059;-84
2023/05/15 05:33:43;;;;;;;13.65;8.70;;;12.10;99.90;;;;;;4249734;27;20073;-84
2023/05/15 05:35:43;;;;;;;14.90;9.27;;;12.10;99.90;;;;;;4238247;27;20039;-83
2023/05/15 05:37:44;;;;;;;16.90;9.30;;;12.20;99.90;;;;;;4234034;28;20044;-83
2023/05/15 05:39:45;;;;;;;17.70;10.55;;;12.20;99.90;;;;;;4237888;27;20200;-83
2023/05/15 05:41:46;;;;;;;15.70;10.27;;;12.20;99.90;;;;;;4233366;28;20032;-83
2023/05/15 05:43:47;;;;;;;16.55;9.68;;;12.20;99.90;;;;;;4233781;28;20043;-83
2023/05/15 05:45:47;;;;;;;15.85;10.20;;;12.20;99.90;;;;;;4250125;27;20042;-83
2023/05/15 05:47:48;;;;;;;17.80;10.23;;;12.20;99.90;;;;;;4250872;27;20043;-83
2023/05/15 05:49:49;;;;;;;17.20;10.02;;;12.30;99.90;;;;;;4251220;27;20043;-84
2023/05/15 05:51:49;;;;;;;15.73;10.88;;;12.30;99.90;;;;;;4230905;28;20048;-83
2023/05/15 05:53:50;;;;;;;16.48;10.57;;;12.40;99.90;;;;;;4236752;27;20399;-83
2023/05/15 05:55:51;;;;;;;15.75;9.50;;;12.40;99.90;;;;;;4233798;28;20122;-83
2023/05/15 05:57:52;;;;;;;16.70;9.57;;;12.50;99.90;;;;;;4230253;28;20473;-83
2023/05/15 05:59:53;;;;;;;15.00;9.93;;;12.50;99.90;;;;;;4251461;27;20479;-84
2023/05/15 06:01:54;;;;;;;14.65;9.38;;;12.50;99.90;;;;;;4250279;27;20118;-83
2023/05/15 06:03:54;;;;;;;16.65;10.57;;;12.60;99.90;;;;;;4251893;27;20047;-84
2023/05/15 06:05:56;;;;;;;18.85;9.05;;;12.60;99.90;;;;;;4250912;27;20490;-84
2023/05/15 06:07:56;;;;;;;14.80;8.85;;;12.60;99.90;;;;;;4234165;28;20493;-83
2023/05/15 06:09:58;;;;;;;13.15;8.95;;;12.70;99.90;;;;;;4233867;28;20559;-84
2023/05/15 06:11:59;;;;;;;15.23;9.35;;;12.80;99.90;;;;;;4241019;27;20086;-83
2023/05/15 06:14:00;;;;;;;14.30;8.90;;;12.90;99.90;;;;;;4234986;28;20483;-85
2023/05/15 06:16:00;;;;;;;12.77;8.90;;;13.10;99.90;;;;;;4233465;28;20043;-84
2023/05/15 06:18:01;;;;;;;16.10;8.73;;;13.30;99.90;;;;;;4233973;28;20040;-84
2023/05/15 06:20:07;;;;;;;15.25;9.30;;;13.50;99.90;;;;;;4215963;28;20054;-83
2023/05/15 06:22:08;;;;;;;21.38;9.90;;;13.70;99.90;;;;;;4233548;28;20079;-84
2023/05/15 06:24:09;;;;;;;15.52;9.35;;;13.80;99.90;;;;;;4231980;28;20066;-84
2023/05/15 06:26:10;;;;;;;14.38;9.68;;;13.80;99.90;;;;;;4233284;28;20500;-84
2023/05/15 06:28:11;;;;;;;12.27;7.28;;;13.80;99.90;;;;;;4233557;27;20391;-85
2023/05/15 06:30:12;;;;;;;15.13;7.05;;;13.80;99.90;;;;;;4237325;27;20051;-84
2023/05/15 06:32:13;;;;;;;10.00;6.82;;;13.90;99.90;;;;;;4215344;28;20044;-83
2023/05/15 06:34:13;;;;;;;11.30;7.10;;;14.00;99.90;;;;;;4233124;28;20534;-84
2023/05/15 06:36:14;;;;;;;9.30;5.65;;;14.20;99.90;;;;;;4214606;28;20040;-84
2023/05/15 06:38:15;;;;;;;11.38;6.20;;;14.30;99.90;;;;;;4232519;28;20058;-83
2023/05/15 06:40:17;;;;;;;9.20;5.10;;;14.40;99.90;;;;;;4232822;28;20043;-83
2023/05/15 06:42:19;;;;;;;9.27;5.28;;;14.60;99.90;;;;;;4232781;28;20035;-85
2023/05/15 06:44:19;;;;;;;12.48;5.15;;;14.60;99.90;;;;;;4233376;28;20039;-84
2023/05/15 06:46:21;;;;;;;8.50;5.45;;;14.80;99.90;;;;;;4218600;28;20149;-85
2023/05/15 06:48:22;;;;;;;8.52;5.53;;;14.70;99.90;;;;;;4233370;28;20039;-86
2023/05/15 06:50:22;;;;;;;9.63;6.22;;;14.70;99.90;;;;;;4216728;28;20058;-88
2023/05/15 06:52:25;;;;;;;9.57;6.43;;;14.20;99.90;;;;;;4216485;28;20083;-88
2023/05/15 06:54:26;;;;;;;8.93;5.40;;;14.70;99.90;;;;;;4216483;28;20507;-85
2023/05/15 06:56:27;;;;;;;8.68;5.72;;;14.70;99.90;;;;;;4218809;28;20067;-84
2023/05/15 06:58:27;;;;;;;7.47;5.38;;;14.60;99.90;;;;;;4233270;28;20051;-88
2023/05/15 07:00:28;;;;;;;9.23;5.93;;;14.60;99.90;;;;;;4231268;28;20040;-85
2023/05/15 07:02:29;;;;;;;12.15;6.47;;;14.50;99.90;;;;;;4214437;28;20048;-86
2023/05/15 07:04:30;;;;;;;8.63;5.40;;;14.60;99.90;;;;;;4215267;28;20060;-86
2023/05/15 07:06:31;;;;;;;7.93;5.68;;;14.60;99.90;;;;;;4212784;28;20108;-86
2023/05/15 07:08:31;;;;;;;7.22;5.25;;;14.60;99.90;;;;;;4233427;28;20039;-86
2023/05/15 07:10:32;;;;;;;9.38;5.80;;;14.60;99.90;;;;;;4233006;28;20092;-85
2023/05/15 07:12:33;;;;;;;6.35;5.05;;;14.50;99.90;;;;;;4216053;28;20225;-86
2023/05/15 07:14:34;;;;;;;9.68;5.75;;;14.60;99.90;;;;;;4234089;27;20399;-88
2023/05/15 07:16:35;;;;;;;8.57;5.57;;;14.70;99.90;;;;;;4214213;28;20048;-87
2023/05/15 07:18:36;;;;;;;8.60;5.45;;;14.80;99.90;;;;;;4231927;28;20048;-87
2023/05/15 07:20:37;;;;;;;9.13;5.25;;;15.00;99.90;;;;;;4232928;28;20054;-88
2023/05/15 07:22:38;;;;;;;8.75;5.43;;;15.10;99.90;;;;;;4198861;28;20048;-89
2023/05/15 07:24:39;;;;;;;7.30;5.65;;;15.30;99.90;;;;;;4235167;27;20052;-86
2023/05/15 07:26:40;;;;;;;8.48;4.90;;;15.50;99.90;;;;;;4248847;27;20126;-84
2023/05/15 07:28:41;;;;;;;6.47;4.90;;;15.60;99.90;;;;;;4216320;28;20155;-85
2023/05/15 07:30:41;;;;;;;9.48;4.97;;;15.70;99.90;;;;;;4243926;27;20050;-85
2023/05/15 07:32:42;;;;;;;8.57;5.35;;;15.80;99.90;;;;;;4247931;27;20078;-85
2023/05/15 07:34:43;;;;;;;8.80;5.15;;;15.80;99.90;;;;;;4231543;28;20499;-85
2023/05/15 07:36:44;;;;;;;9.38;5.32;;;15.90;99.90;;;;;;4200077;28;20028;-85
2023/05/15 07:38:45;;;;;;;9.65;5.55;;;15.90;99.90;;;;;;4215078;28;20044;-86
2023/05/15 07:40:46;;;;;;;7.00;5.15;;;15.30;99.90;;;;;;4224375;28;20630;-85
2023/05/15 07:42:47;;;;;;;7.78;5.47;;;16.00;99.90;;;;;;4243421;27;20039;-85
2023/05/15 07:44:47;;;;;;;9.77;4.72;;;16.20;99.90;;;;;;4233570;28;20039;-87
2023/05/15 07:46:48;;;;;;;6.57;4.80;;;16.20;99.90;;;;;;4246318;27;20050;-87
2023/05/15 07:48:49;;;;;;;6.70;4.85;;;16.30;99.90;;;;;;4243637;27;20124;-86
2023/05/15 07:50:51;;;;;;;24.38;6.15;;;16.40;99.90;;;;;;4249204;27;20039;-85
2023/05/15 07:52:52;;;;;;;8.40;5.38;;;16.50;99.90;;;;;;4229085;28;20466;-85
2023/05/15 07:54:53;;;;;;;7.97;5.13;;;16.60;99.90;;;;;;4221760;28;20409;-86
2023/05/15 07:56:55;;;;;;;8.30;4.88;;;16.70;99.90;;;;;;4244217;27;20094;-86
2023/05/15 07:58:56;;;;;;;7.45;4.43;;;16.80;99.90;;;;;;4231179;28;20537;-85
2023/05/15 08:00:56;;;;;;;8.80;4.75;;;16.80;99.90;;;;;;4222170;28;20050;-86
2023/05/15 08:02:58;;;;;;;8.27;5.65;;;17.00;99.90;;;;;;4228579;28;20100;-86
2023/05/15 08:04:59;;;;;;;8.32;5.22;;;17.10;99.90;;;;;;4249426;27;20043;-86
2023/05/15 08:07:00;;;;;;;10.60;4.53;;;17.10;99.90;;;;;;4230277;28;20128;-86
2023/05/15 08:09:02;;;;;;;9.25;4.85;;;17.10;99.90;;;;;;4251307;27;20035;-85
2023/05/15 08:11:03;;;;;;;6.97;4.70;;;16.50;99.90;;;;;;4253085;27;20060;-86
2023/05/15 08:13:05;;;;;;;5.90;4.40;;;17.20;99.90;;;;;;4253143;27;20051;-85
2023/05/15 08:15:07;;;;;;;7.80;5.38;;;17.20;99.90;;;;;;4248727;27;20042;-87
2023/05/15 08:17:08;;;;;;;8.32;4.68;;;17.30;99.90;;;;;;4230982;28;20047;-87
2023/05/15 08:19:10;;;;;;;7.35;4.75;;;17.50;99.90;;;;;;4249061;27;20045;-87
2023/05/15 08:21:11;;;;;;;7.50;4.78;;;17.60;99.90;;;;;;4212922;28;20044;-87
2023/05/15 08:23:12;;;;;;;7.25;5.03;;;17.70;99.90;;;;;;4249521;27;20115;-87
2023/05/15 08:25:14;;;;;;;8.20;5.13;;;17.80;99.90;;;;;;4231477;28;20052;-87
2023/05/15 08:27:15;;;;;;;9.00;5.00;;;17.90;99.90;;;;;;4231435;28;20155;-87
2023/05/15 08:29:15;;;;;;;5.55;4.15;;;17.90;99.90;;;;;;4228280;28;20051;-87
2023/05/15 08:31:16;;;;;;;9.32;4.95;;;18.00;99.90;;;;;;4211187;28;20450;-87
2023/05/15 08:33:17;;;;;;;9.55;5.10;;;18.10;99.90;;;;;;4211952;28;20040;-87
2023/05/15 08:35:18;;;;;;;7.25;5.40;;;18.10;99.90;;;;;;4221065;28;20119;-87
2023/05/15 08:37:18;;;;;;;7.55;4.85;;;18.10;99.90;;;;;;4197366;28;20072;-88
2023/05/15 08:39:19;;;;;;;8.05;4.68;;;18.20;99.90;;;;;;4232112;28;20059;-87
2023/05/15 08:41:55;;;;;;;7.35;4.72;;;18.40;99.90;;;;;;4231343;28;20163;-87
2023/05/15 08:43:57;;;;;;;7.93;4.40;;;18.60;99.90;;;;;;4211679;28;20056;-88
2023/05/15 08:45:59;;;;;;;6.53;3.75;;;18.80;99.90;;;;;;4232109;28;20048;-88
2023/05/15 08:48:00;;;;;;;7.25;4.97;;;19.10;99.90;;;;;;4231856;28;20044;-88
2023/05/15 08:50:12;;;;;;;8.57;5.10;;;19.30;99.90;;;;;;4231771;28;20058;-87
2023/05/15 08:52:14;;;;;;;6.00;4.22;;;19.40;99.90;;;;;;4233418;28;20036;-88
2023/05/15 08:54:17;;;;;;;7.40;4.70;;;19.50;99.90;;;;;;4235672;28;20135;-87
2023/05/15 08:56:18;;;;;;;8.90;4.10;;;19.60;99.90;;;;;;4235373;28;20156;-88
2023/05/15 08:58:24;;;;;;;7.05;4.30;;;19.70;99.90;;;;;;4236072;28;20056;-87
2023/05/15 09:00:26;;;;;;;6.72;4.28;;;19.70;99.90;;;;;;4233407;28;20087;-88
2023/05/15 09:02:27;;;;;;;7.10;4.55;;;19.80;99.90;;;;;;4234417;28;20052;-88
2023/05/15 09:04:29;;;;;;;7.32;4.90;;;19.90;99.90;;;;;;4215739;28;20050;-88
2023/05/15 09:06:33;;;;;;;11.57;5.25;;;20.00;99.90;;;;;;4233283;28;20043;-88
2023/05/15 09:08:35;;;;;;;8.95;5.40;;;20.10;99.90;;;;;;4233852;28;20036;-88
2023/05/15 09:10:36;;;;;;;7.50;4.38;;;20.20;99.90;;;;;;4234383;28;20062;-88
2023/05/15 09:12:40;;;;;;;7.95;4.20;;;20.40;99.90;;;;;;4216491;28;20044;-88
2023/05/15 09:14:44;;;;;;;6.88;4.93;;;20.50;99.90;;;;;;4234442;28;20059;-88
2023/05/15 09:16:49;;;;;;;9.25;5.30;;;20.80;99.90;;;;;;4233619;28;20051;-88
2023/05/15 09:18:52;;;;;;;5.40;4.05;;;20.90;99.90;;;;;;4234059;28;20055;-88
2023/05/15 09:20:54;;;;;;;7.25;4.60;;;21.00;99.90;;;;;;4232613;28;20039;-88
2023/05/15 09:22:55;;;;;;;7.03;4.60;;;21.10;99.90;;;;;;4230255;28;20052;-87
2023/05/15 09:24:57;;;;;;;7.40;5.25;;;21.20;99.90;;;;;;4215877;28;20415;-87
2023/05/15 09:27:03;;;;;;;10.40;5.45;;;21.30;99.90;;;;;;4215455;28;20040;-88
2023/05/15 09:29:04;;;;;;;9.15;4.38;;;21.40;99.90;;;;;;4216489;28;20123;-88
2023/05/15 09:31:06;;;;;;;7.28;5.20;;;21.60;99.90;;;;;;4231283;28;20100;-87
2023/05/15 09:33:08;;;;;;;7.32;4.80;;;21.70;99.90;;;;;;4216201;28;20477;-88
2023/05/15 09:35:34;;;;;;;6.50;5.13;;;21.80;99.90;;;;;;4198267;28;20119;-89
2023/05/15 09:37:35;;;;;;;11.98;5.13;;;21.90;99.90;;;;;;4219609;28;20056;-89
2023/05/15 09:39:45;;;;;;;10.10;5.80;;;22.00;99.90;;;;;;4248989;28;20471;-89
2023/05/15 09:41:45;;;;;;;10.18;4.85;;;22.00;99.90;;;;;;4247001;28;20053;-89
2023/05/15 09:43:48;;;;;;;5.60;4.68;;;22.20;99.90;;;;;;4247395;28;20511;-88
2023/05/15 09:45:49;;;;;;;7.63;4.10;;;22.30;99.90;;;;;;4249643;27;20051;-88
2023/05/15 09:47:49;;;;;;;6.57;3.72;;;22.40;99.70;;;;;;4248597;28;20039;-89
2023/05/15 09:49:51;;;;;;;7.97;4.57;;;22.50;99.70;;;;;;4246920;28;20040;-89
2023/05/15 09:51:54;;;;;;;10.30;4.88;;;22.70;99.30;;;;;;4247549;28;20047;-89
2023/05/15 09:53:54;;;;;;;5.55;4.22;;;22.70;98.90;;;;;;4247329;28;20043;-89
2023/05/15 09:55:55;;;;;;;6.65;4.50;;;22.70;98.80;;;;;;4243233;27;20487;-89
2023/05/15 09:58:12;;;;;;;5.28;4.03;;;22.60;98.80;;;;;;4231685;28;20498;-89
2023/05/15 10:00:14;;;;;;;8.70;3.75;;;22.70;98.20;;;;;;4233038;28;20054;-89
2023/05/15 10:02:33;;;;;;;6.70;3.30;;;22.80;98.50;;;;;;4233762;28;20543;-88
2023/05/15 10:04:36;;;;;;;5.97;3.40;;;22.90;97.40;;;;;;4250778;27;20511;-89
2023/05/15 10:06:42;;;;;;;7.65;3.65;;;23.10;97.80;;;;;;4235304;28;20039;-88
2023/05/15 10:08:51;;;;;;;5.82;3.03;;;23.20;97.40;;;;;;4251048;27;20047;-88
2023/05/15 10:10:53;;;;;;;5.55;2.90;;;23.50;96.60;;;;;;4232883;28;20051;-89
2023/05/15 10:12:57;;;;;;;5.28;3.08;;;23.70;96.80;;;;;;4232990;28;20043;-88
2023/05/15 10:14:59;;;;;;;6.10;3.35;;;23.90;96.60;;;;;;4233843;28;20070;-88
2023/05/15 10:17:01;;;;;;;5.15;3.00;;;23.90;96.20;;;;;;4233463;28;20130;-89
2023/05/15 10:19:12;;;;;;;5.07;3.60;;;23.80;96.20;;;;;;4233436;28;20083;-89
2023/05/15 10:21:15;;;;;;;5.75;2.72;;;23.90;95.40;;;;;;4234625;28;20043;-89
2023/05/15 10:23:17;;;;;;;5.95;2.78;;;24.20;95.90;;;;;;4241255;27;20061;-89
2023/05/15 10:25:33;;;;;;;3.70;2.88;;;24.30;95.20;;;;;;4232107;28;20428;-89
2023/05/15 10:27:36;;;;;;;5.45;2.63;;;24.40;94.50;;;;;;4251103;27;20042;-89
2023/05/15 10:29:38;;;;;;;7.43;2.70;;;24.30;94.80;;;;;;4232364;28;20399;-89